Time;durP1;ratioP1;P1;durP2;ratioP2;P2;SDS_P1;SDS_P2;PMS_P1;PMS_P2;Temp;Humidity;BMP_temperature;BMP_pressure;BME280_temperature;BME280_humidity;BME280_pressure;Samples;Min_cycle;Max_cycle;Signal;HPM_P1;HPM_P2
2022/09/06 00:00:39;;;;;;;;;;;17.20;99.90;;;;;;5005207;28;20183;-68
2022/09/06 00:03:07;;;;;;;;;;;17.20;99.90;;;;;;5004740;28;19994;-67
2022/09/06 00:05:33;;;;;;;;;;;17.10;99.90;;;;;;5005221;28;20297;-68
2022/09/06 00:08:00;;;;;;;;;;;17.10;99.90;;;;;;5005197;28;19959;-68
2022/09/06 00:10:28;;;;;;;;;;;17.10;99.90;;;;;;5004835;28;19953;-68
2022/09/06 00:12:55;;;;;;;;;;;17.10;99.90;;;;;;5004686;28;19988;-68
2022/09/06 00:15:23;;;;;;;;;;;17.00;99.90;;;;;;5005235;28;19953;-67
2022/09/06 00:17:50;;;;;;;;;;;17.00;99.90;;;;;;5005256;28;19989;-68
2022/09/06 00:20:17;;;;;;;;;;;17.00;99.90;;;;;;5005063;28;19927;-68
2022/09/06 00:22:43;;;;;;;;;;;16.90;99.90;;;;;;5004273;28;19961;-68
2022/09/06 00:25:10;;;;;;;;;;;16.80;99.90;;;;;;5004978;28;19922;-67
2022/09/06 00:27:37;;;;;;;;;;;16.80;99.90;;;;;;5004840;28;19953;-67
2022/09/06 00:30:04;;;;;;;;;;;16.80;99.90;;;;;;5004764;28;19921;-68
2022/09/06 00:32:32;;;;;;;;;;;16.70;99.90;;;;;;5004545;28;19921;-68
2022/09/06 00:34:59;;;;;;;;;;;16.60;99.90;;;;;;5004386;28;19928;-68
2022/09/06 00:37:26;;;;;;;;;;;16.60;99.90;;;;;;5004777;28;19956;-68
2022/09/06 00:39:52;;;;;;;;;;;16.60;99.90;;;;;;5014660;28;19928;-67
2022/09/06 00:42:19;;;;;;;;;;;16.60;99.90;;;;;;5024412;28;19928;-68
2022/09/06 00:44:46;;;;;;;;;;;16.50;99.90;;;;;;5023825;28;19936;-68
2022/09/06 00:47:12;;;;;;;;;;;16.50;99.90;;;;;;5023937;28;19922;-68
2022/09/06 00:49:42;;;;;;;;;;;16.40;99.90;;;;;;5024261;28;19989;-68
2022/09/06 00:52:10;;;;;;;;;;;16.40;99.90;;;;;;5024265;28;19968;-68
2022/09/06 00:54:37;;;;;;;;;;;16.30;99.90;;;;;;5023142;28;19989;-68
2022/09/06 00:57:04;;;;;;;;;;;16.30;99.90;;;;;;5024171;28;20193;-68
2022/09/06 00:59:33;;;;;;;;;;;16.30;99.90;;;;;;5024213;28;19922;-68
2022/09/06 01:01:59;;;;;;;;;;;16.30;99.90;;;;;;5023710;28;20263;-67
2022/09/06 01:04:26;;;;;;;;;;;16.20;99.90;;;;;;5022972;28;20169;-68
2022/09/06 01:07:01;;;;;;;;;;;16.20;99.90;;;;;;5023988;28;20304;-68
2022/09/06 01:09:32;;;;;;;;;;;16.20;99.90;;;;;;5023854;28;20116;-67
2022/09/06 01:12:04;;;;;;;;;;;16.20;99.90;;;;;;5023759;28;19956;-68
2022/09/06 01:14:40;;;;;;;;;;;16.20;99.90;;;;;;5023233;28;19981;-68
2022/09/06 01:17:11;;;;;;;;;;;16.20;99.90;;;;;;5024009;28;19929;-68
2022/09/06 01:19:48;;;;;;;;;;;16.10;99.90;;;;;;5023903;28;19921;-68
2022/09/06 01:22:26;;;;;;;;;;;16.10;99.90;;;;;;5022732;28;19997;-68
2022/09/06 01:25:09;;;;;;;;;;;16.10;99.90;;;;;;5023336;28;19928;-67
2022/09/06 01:27:46;;;;;;;;;;;16.10;99.90;;;;;;5023915;28;20061;-68
2022/09/06 01:30:13;;;;;;;;;;;16.10;99.90;;;;;;5023754;28;19963;-67
2022/09/06 01:32:42;;;;;;;;;;;16.10;99.90;;;;;;5023296;28;19925;-68
2022/09/06 01:35:15;;;;;;;;;;;16.10;99.90;;;;;;5023132;28;20204;-68
2022/09/06 01:37:42;;;;;;;;;;;16.10;99.90;;;;;;5023865;28;19984;-68
2022/09/06 01:40:09;;;;;;;;;;;16.00;99.90;;;;;;5023512;28;19921;-68
2022/09/06 01:42:36;;;;;;;;;;;16.00;99.90;;;;;;5023207;28;19967;-67
2022/09/06 01:45:07;;;;;;;;;;;16.00;99.90;;;;;;5023105;28;19989;-68
2022/09/06 01:47:38;;;;;;;;;;;16.00;99.90;;;;;;5023679;28;19929;-68
2022/09/06 01:50:26;;;;;;;;;;;16.00;99.90;;;;;;5023707;28;19929;-68
2022/09/06 01:52:58;;;;;;;;;;;16.00;99.90;;;;;;5017621;28;19930;-68
2022/09/06 01:55:29;;;;;;;;;;;15.90;99.90;;;;;;5023017;28;20225;-68
2022/09/06 01:58:05;;;;;;;;;;;15.90;99.90;;;;;;5023388;28;20177;-68
2022/09/06 02:00:34;;;;;;;;;;;15.90;99.90;;;;;;5022869;28;19984;-68
2022/09/06 02:03:06;;;;;;;;;;;15.90;99.90;;;;;;5022902;28;20265;-68
2022/09/06 02:05:34;;;;;;;;;;;15.90;99.90;;;;;;5023164;28;19929;-68
2022/09/06 02:08:05;;;;;;;;;;;15.90;99.90;;;;;;5023300;28;19997;-68
2022/09/06 02:10:33;;;;;;;;;;;15.90;99.90;;;;;;5023275;28;19989;-68
2022/09/06 02:13:01;;;;;;;;;;;15.80;99.90;;;;;;5022793;28;19964;-68
2022/09/06 02:15:29;;;;;;;;;;;15.80;99.90;;;;;;5022915;28;19926;-68
2022/09/06 02:17:59;;;;;;;;;;;15.70;99.90;;;;;;5022896;28;20335;-68
2022/09/06 02:20:29;;;;;;;;;;;15.70;99.90;;;;;;5023104;28;20089;-67
2022/09/06 02:22:56;;;;;;;;;;;15.70;99.90;;;;;;5022593;28;19929;-68
2022/09/06 02:25:25;;;;;;;;;;;15.70;99.90;;;;;;5023255;28;20167;-69
2022/09/06 02:27:51;;;;;;;;;;;15.60;99.90;;;;;;5023255;28;19928;-67
2022/09/06 02:30:18;;;;;;;;;;;15.60;99.90;;;;;;5023185;28;19960;-67
2022/09/06 02:32:48;;;;;;;;;;;15.60;99.90;;;;;;5022727;28;19957;-67
2022/09/06 02:35:16;;;;;;;;;;;15.60;99.90;;;;;;5026441;28;20189;-68
2022/09/06 02:37:43;;;;;;;;;;;15.50;99.90;;;;;;5026727;28;19956;-68
2022/09/06 02:40:10;;;;;;;;;;;15.50;99.90;;;;;;5026768;28;19981;-68
2022/09/06 02:42:37;;;;;;;;;;;15.50;99.90;;;;;;5025979;28;19922;-67
2022/09/06 02:45:04;;;;;;;;;;;15.40;99.90;;;;;;5025967;28;19941;-68
2022/09/06 02:47:30;;;;;;;;;;;15.40;99.90;;;;;;5026527;28;19944;-68
2022/09/06 02:49:57;;;;;;;;;;;15.40;99.90;;;;;;5026321;28;19921;-68
2022/09/06 02:52:26;;;;;;;;;;;15.40;99.90;;;;;;5026328;28;19921;-68
2022/09/06 02:54:52;;;;;;;;;;;15.30;99.90;;;;;;5025853;28;19963;-67
2022/09/06 02:57:19;;;;;;;;;;;15.30;99.90;;;;;;5026410;28;19949;-68
2022/09/06 02:59:46;;;;;;;;;;;15.30;99.90;;;;;;5026063;28;19952;-67
2022/09/06 03:02:12;;;;;;;;;;;15.30;99.90;;;;;;5026195;28;19929;-67
2022/09/06 03:04:39;;;;;;;;;;;15.30;99.90;;;;;;5025161;28;19922;-69
2022/09/06 03:07:06;;;;;;;;;;;15.30;99.90;;;;;;5026021;28;19929;-67
2022/09/06 03:09:34;;;;;;;;;;;15.30;99.90;;;;;;5025357;28;19921;-68
2022/09/06 03:12:00;;;;;;;;;;;15.30;99.90;;;;;;5024882;28;19997;-67
2022/09/06 03:14:27;;;;;;;;;;;15.30;99.90;;;;;;5024419;28;19928;-67
2022/09/06 03:16:53;;;;;;;;;;;15.20;99.90;;;;;;5025075;28;19929;-68
2022/09/06 03:19:20;;;;;;;;;;;15.20;99.90;;;;;;5024974;28;19921;-68
2022/09/06 03:21:47;;;;;;;;;;;15.30;99.90;;;;;;5024955;28;19921;-67
2022/09/06 03:24:13;;;;;;;;;;;15.30;99.90;;;;;;5024391;28;20157;-67
2022/09/06 03:26:43;;;;;;;;;;;15.30;99.90;;;;;;5024543;28;19960;-68
2022/09/06 03:29:09;;;;;;;;;;;15.20;99.90;;;;;;5024744;28;19921;-67
2022/09/06 03:31:36;;;;;;;;;;;15.20;99.90;;;;;;5024824;28;19951;-67
2022/09/06 03:34:03;;;;;;;;;;;15.20;99.90;;;;;;5024177;28;19922;-68
2022/09/06 03:36:29;;;;;;;;;;;15.20;99.90;;;;;;5024582;28;20121;-67
2022/09/06 03:38:57;;;;;;;;;;;15.20;99.90;;;;;;5024692;28;20113;-68
2022/09/06 03:41:23;;;;;;;;;;;15.20;99.90;;;;;;5024286;28;19921;-68
2022/09/06 03:43:51;;;;;;;;;;;15.20;99.90;;;;;;5023973;28;19929;-67
2022/09/06 03:46:18;;;;;;;;;;;15.20;99.90;;;;;;5023749;28;19922;-69
2022/09/06 03:48:45;;;;;;;;;;;15.10;99.90;;;;;;5024550;28;19929;-67
2022/09/06 03:51:11;;;;;;;;;;;15.10;99.90;;;;;;5024419;28;19953;-67
2022/09/06 03:53:38;;;;;;;;;;;15.20;99.90;;;;;;5024131;28;19929;-68
2022/09/06 03:56:05;;;;;;;;;;;15.20;99.90;;;;;;5024182;28;20184;-68
2022/09/06 03:58:32;;;;;;;;;;;15.20;99.90;;;;;;5024097;28;19952;-68
2022/09/06 04:01:01;;;;;;;;;;;15.20;99.90;;;;;;5024510;28;19929;-67
2022/09/06 04:03:28;;;;;;;;;;;15.20;99.90;;;;;;5023367;28;19921;-68
2022/09/06 04:05:54;;;;;;;;;;;15.20;99.90;;;;;;5024207;28;19921;-67
2022/09/06 04:08:21;;;;;;;;;;;15.20;99.90;;;;;;4956449;28;1949448;-67
2022/09/06 04:10:49;;;;;;;;;;;15.20;99.90;;;;;;5025128;28;19921;-68
2022/09/06 04:13:16;;;;;;;;;;;15.20;99.90;;;;;;5024191;28;19953;-68
2022/09/06 04:15:46;;;;;;;;;;;15.20;99.90;;;;;;5024562;28;19921;-67
2022/09/06 04:18:15;;;;;;;;;;;15.10;99.90;;;;;;5024449;28;19922;-68
2022/09/06 04:20:42;;;;;;;;;;;15.10;99.90;;;;;;5025065;28;19984;-68
2022/09/06 04:23:09;;;;;;;;;;;15.10;99.90;;;;;;5024193;28;19976;-68
2022/09/06 04:25:35;;;;;;;;;;;15.00;99.90;;;;;;5024561;28;20445;-68
2022/09/06 04:28:02;;;;;;;;;;;15.10;99.90;;;;;;5024497;28;20205;-67
2022/09/06 04:30:29;;;;;;;;;;;15.00;99.90;;;;;;5024590;28;19956;-67
2022/09/06 04:32:56;;;;;;;;;;;14.90;99.90;;;;;;5024052;28;19921;-68
2022/09/06 04:35:24;;;;;;;;;;;14.80;99.90;;;;;;5021863;28;20232;-68
2022/09/06 04:37:50;;;;;;;;;;;14.80;99.90;;;;;;5022847;28;20440;-68
2022/09/06 04:40:17;;;;;;;;;;;14.70;99.90;;;;;;5024550;28;19976;-68
2022/09/06 04:42:44;;;;;;;;;;;14.70;99.90;;;;;;5024012;28;19928;-68
2022/09/06 04:45:10;;;;;;;;;;;14.70;99.90;;;;;;5024544;28;19922;-68
2022/09/06 04:47:37;;;;;;;;;;;14.70;99.90;;;;;;5024598;28;19953;-68
2022/09/06 04:50:04;;;;;;;;;;;14.70;99.90;;;;;;5019215;28;19929;-67
2022/09/06 04:52:32;;;;;;;;;;;14.70;99.90;;;;;;5023823;28;19992;-68
2022/09/06 04:54:59;;;;;;;;;;;14.80;99.90;;;;;;5023573;28;20181;-68
2022/09/06 04:57:25;;;;;;;;;;;14.80;99.90;;;;;;5023351;28;20178;-66
2022/09/06 04:59:52;;;;;;;;;;;14.90;99.90;;;;;;5024102;28;20124;-67
2022/09/06 05:02:19;;;;;;;;;;;15.00;99.90;;;;;;5023815;28;19996;-68
2022/09/06 05:04:45;;;;;;;;;;;15.00;99.90;;;;;;5023283;28;19929;-68
2022/09/06 05:07:12;;;;;;;;;;;15.00;99.90;;;;;;5023852;28;19952;-68
2022/09/06 05:09:40;;;;;;;;;;;15.10;99.90;;;;;;5024166;28;19929;-68
2022/09/06 05:12:07;;;;;;;;;;;15.10;99.90;;;;;;5024055;28;20113;-68
2022/09/06 05:14:33;;;;;;;;;;;15.10;99.90;;;;;;5023004;28;19928;-66
2022/09/06 05:17:00;;;;;;;;;;;15.10;99.90;;;;;;5023810;28;19926;-68
2022/09/06 05:19:27;;;;;;;;;;;15.20;99.90;;;;;;5023795;28;19953;-68
2022/09/06 05:21:53;;;;;;;;;;;15.20;99.90;;;;;;5023963;28;19922;-68
2022/09/06 05:24:20;;;;;;;;;;;15.30;99.90;;;;;;5023277;28;19922;-68
2022/09/06 05:26:48;;;;;;;;;;;15.30;99.90;;;;;;5023303;28;19953;-68
2022/09/06 05:29:15;;;;;;;;;;;15.40;99.90;;;;;;5023535;28;19952;-68
2022/09/06 05:31:42;;;;;;;;;;;15.50;99.90;;;;;;5023924;28;19921;-68
2022/09/06 05:34:09;;;;;;;;;;;15.60;99.90;;;;;;5022767;28;20176;-68
2022/09/06 05:36:37;;;;;;;;;;;15.60;99.90;;;;;;5023740;28;19961;-68
2022/09/06 05:39:04;;;;;;;;;;;15.70;99.90;;;;;;5023654;28;19921;-68
2022/09/06 05:41:31;;;;;;;;;;;15.90;99.90;;;;;;5023835;28;19955;-68
2022/09/06 05:43:59;;;;;;;;;;;15.90;99.90;;;;;;5022713;28;19921;-68
2022/09/06 05:46:26;;;;;;;;;;;16.00;99.90;;;;;;5023304;28;19953;-68
2022/09/06 05:48:53;;;;;;;;;;;16.10;99.90;;;;;;5023573;28;19921;-68
2022/09/06 05:51:20;;;;;;;;;;;16.20;99.90;;;;;;5023436;28;20029;-68
2022/09/06 05:53:46;;;;;;;;;;;16.30;99.90;;;;;;5023123;28;19922;-68
2022/09/06 05:56:14;;;;;;;;;;;16.30;99.90;;;;;;5022898;28;19953;-68
2022/09/06 05:58:40;;;;;;;;;;;16.40;99.90;;;;;;5023101;28;19985;-68
2022/09/06 06:01:14;;;;;;;;;;;16.40;99.90;;;;;;5023596;28;19928;-70
2022/09/06 06:03:42;;;;;;;;;;;16.50;99.90;;;;;;5022892;28;19929;-69
2022/09/06 06:06:08;;;;;;;;;;;16.60;99.90;;;;;;5023247;28;19984;-69
2022/09/06 06:08:35;;;;;;;;;;;16.60;99.90;;;;;;5024611;28;19959;-68
2022/09/06 06:11:02;;;;;;;;;;;16.60;99.90;;;;;;5026146;28;19922;-68
2022/09/06 06:13:33;;;;;;;;;;;16.60;99.90;;;;;;5026090;28;20358;-69
2022/09/06 06:16:00;;;;;;;;;;;16.60;99.90;;;;;;5026679;28;19929;-69
2022/09/06 06:18:28;;;;;;;;;;;16.60;99.90;;;;;;5026720;28;19921;-69
2022/09/06 06:21:06;;;;;;;;;;;16.70;99.90;;;;;;5026648;28;19956;-69
2022/09/06 06:23:33;;;;;;;;;;;16.80;99.90;;;;;;5006327;28;19956;-69
2022/09/06 06:25:59;;;;;;;;;;;16.90;99.90;;;;;;5006944;28;19922;-68
2022/09/06 06:28:26;;;;;;;;;;;17.00;99.90;;;;;;5007301;28;19957;-69
2022/09/06 06:30:53;;;;;;;;;;;17.10;99.90;;;;;;5007088;28;19944;-69
2022/09/06 06:33:20;;;;;;;;;;;17.20;99.90;;;;;;5006679;28;19929;-69
2022/09/06 06:35:57;;;;;;;;;;;17.20;99.90;;;;;;5006915;28;20289;-69
2022/09/06 06:38:29;;;;;;;;;;;17.40;99.90;;;;;;5004284;28;19922;-70
2022/09/06 06:40:56;;;;;;;;;;;17.50;99.90;;;;;;5006931;28;19960;-69
2022/09/06 06:43:23;;;;;;;;;;;17.60;99.90;;;;;;5006820;28;19996;-70
2022/09/06 06:45:49;;;;;;;;;;;17.70;99.90;;;;;;5006958;28;19926;-69
2022/09/06 06:48:16;;;;;;;;;;;17.80;99.90;;;;;;5006619;28;19983;-69
2022/09/06 06:50:43;;;;;;;;;;;17.90;99.90;;;;;;5020191;28;20170;-70
2022/09/06 06:53:11;;;;;;;;;;;18.00;99.90;;;;;;5025739;28;19953;-70
2022/09/06 06:55:38;;;;;;;;;;;18.10;99.90;;;;;;5025923;28;19981;-70
2022/09/06 06:58:05;;;;;;;;;;;18.20;99.90;;;;;;5026195;28;20009;-69
2022/09/06 07:00:31;;;;;;;;;;;18.30;99.90;;;;;;5026258;28;19929;-70
2022/09/06 07:02:58;;;;;;;;;;;18.40;99.90;;;;;;5025334;28;20213;-69
2022/09/06 07:05:25;;;;;;;;;;;18.50;99.90;;;;;;5025899;28;20116;-70
2022/09/06 07:07:52;;;;;;;;;;;18.60;99.90;;;;;;5024889;28;20124;-70
2022/09/06 07:10:20;;;;;;;;;;;18.70;99.90;;;;;;5025900;28;19921;-69
2022/09/06 07:12:46;;;;;;;;;;;18.70;99.90;;;;;;5025579;28;20259;-70
2022/09/06 07:15:13;;;;;;;;;;;18.80;99.90;;;;;;5025556;28;19928;-70
2022/09/06 07:17:40;;;;;;;;;;;18.90;99.90;;;;;;5025863;28;19929;-70
2022/09/06 07:20:07;;;;;;;;;;;18.90;99.90;;;;;;5024583;28;20209;-70
2022/09/06 07:22:34;;;;;;;;;;;18.90;99.90;;;;;;5025113;28;19921;-70
2022/09/06 07:25:01;;;;;;;;;;;19.00;99.90;;;;;;5025296;28;19953;-69
2022/09/06 07:27:29;;;;;;;;;;;19.00;99.90;;;;;;5025813;28;19921;-70
2022/09/06 07:29:55;;;;;;;;;;;19.00;99.90;;;;;;5025664;28;19988;-70
2022/09/06 07:32:22;;;;;;;;;;;19.10;99.90;;;;;;5025001;28;19945;-70
2022/09/06 07:34:49;;;;;;;;;;;19.10;99.90;;;;;;5024969;28;19988;-70
2022/09/06 07:37:15;;;;;;;;;;;19.20;99.90;;;;;;5025167;28;19928;-68
2022/09/06 07:39:42;;;;;;;;;;;19.20;99.90;;;;;;5022788;28;19981;-68
2022/09/06 07:42:09;;;;;;;;;;;19.30;99.90;;;;;;5025149;28;19952;-67
2022/09/06 07:44:37;;;;;;;;;;;19.30;99.90;;;;;;5024816;28;20293;-68
2022/09/06 07:47:05;;;;;;;;;;;19.40;99.90;;;;;;5024821;28;20256;-67
2022/09/06 07:49:32;;;;;;;;;;;19.40;99.90;;;;;;5024496;28;19921;-67
2022/09/06 07:51:58;;;;;;;;;;;19.50;99.90;;;;;;5025229;28;19921;-67
2022/09/06 07:54:25;;;;;;;;;;;19.50;99.90;;;;;;5024373;28;19956;-67
2022/09/06 07:56:52;;;;;;;;;;;19.60;99.90;;;;;;5025182;28;19984;-67
2022/09/06 07:59:18;;;;;;;;;;;19.70;99.90;;;;;;5024695;28;19928;-67
2022/09/06 08:01:47;;;;;;;;;;;19.80;99.90;;;;;;5024815;28;19921;-67
2022/09/06 08:04:13;;;;;;;;;;;19.80;99.90;;;;;;5024074;28;19960;-67
2022/09/06 08:06:41;;;;;;;;;;;19.90;99.90;;;;;;5024982;28;19984;-67
2022/09/06 08:09:08;;;;;;;;;;;20.00;99.90;;;;;;5024707;28;20028;-67
2022/09/06 08:11:36;;;;;;;;;;;20.00;99.90;;;;;;5024932;28;19964;-67
2022/09/06 08:14:04;;;;;;;;;;;20.10;99.90;;;;;;5023679;28;19956;-66
2022/09/06 08:16:32;;;;;;;;;;;20.10;99.90;;;;;;5024437;28;19983;-69
2022/09/06 08:19:01;;;;;;;;;;;20.10;99.90;;;;;;5024557;28;19956;-66
2022/09/06 08:21:28;;;;;;;;;;;20.20;99.90;;;;;;5024310;28;20170;-66
2022/09/06 08:23:56;;;;;;;;;;;20.30;99.90;;;;;;5023480;28;20325;-67
2022/09/06 08:26:23;;;;;;;;;;;20.40;99.90;;;;;;5024546;28;19996;-67
2022/09/06 08:28:53;;;;;;;;;;;20.40;99.90;;;;;;5024600;28;20227;-67
2022/09/06 08:31:19;;;;;;;;;;;20.50;99.90;;;;;;5024091;28;19953;-67
2022/09/06 08:33:46;;;;;;;;;;;20.60;99.90;;;;;;5023529;28;19989;-67
2022/09/06 08:36:14;;;;;;;;;;;20.70;99.90;;;;;;5023962;28;19972;-66
2022/09/06 08:38:41;;;;;;;;;;;20.70;99.90;;;;;;5023886;28;19984;-66
2022/09/06 08:41:09;;;;;;;;;;;20.80;99.90;;;;;;5024195;28;19957;-66
2022/09/06 08:43:36;;;;;;;;;;;20.80;99.90;;;;;;5023553;28;19984;-67
2022/09/06 08:46:03;;;;;;;;;;;20.90;99.90;;;;;;5024009;28;19921;-67
2022/09/06 08:48:32;;;;;;;;;;;21.00;99.90;;;;;;5023821;28;19989;-67
2022/09/06 08:51:07;;;;;;;;;;;21.00;99.90;;;;;;5024019;28;19929;-67
2022/09/06 08:53:38;;;;;;;;;;;21.10;99.90;;;;;;5023314;28;19953;-67
2022/09/06 08:56:12;;;;;;;;;;;21.20;99.90;;;;;;5023358;28;19984;-67
2022/09/06 08:58:45;;;;;;;;;;;21.30;99.90;;;;;;5022964;28;19925;-67
2022/09/06 09:01:14;;;;;;;;;;;21.40;99.90;;;;;;5024146;28;19921;-67
2022/09/06 09:03:42;;;;;;;;;;;21.50;99.90;;;;;;5022840;28;19992;-68
2022/09/06 09:06:09;;;;;;;;;;;21.50;99.90;;;;;;5023740;28;19984;-67
2022/09/06 09:08:41;;;;;;;;;;;21.60;99.90;;;;;;5023691;28;19996;-67
2022/09/06 09:11:10;;;;;;;;;;;21.60;99.90;;;;;;5023952;28;19922;-67
2022/09/06 09:13:39;;;;;;;;;;;21.60;99.90;;;;;;5020528;28;20160;-68
2022/09/06 09:16:06;;;;;;;;;;;21.60;99.90;;;;;;5023788;28;19984;-67
2022/09/06 09:18:34;;;;;;;;;;;21.70;99.90;;;;;;5023304;28;19989;-67
2022/09/06 09:21:01;;;;;;;;;;;21.80;99.90;;;;;;5022950;28;19968;-68
2022/09/06 09:23:28;;;;;;;;;;;21.90;99.90;;;;;;5022867;28;19969;-68
2022/09/06 09:25:59;;;;;;;;;;;22.00;99.90;;;;;;5023622;28;19961;-68
2022/09/06 09:28:25;;;;;;;;;;;22.20;99.90;;;;;;5023605;28;19957;-68
2022/09/06 09:30:53;;;;;;;;;;;22.20;99.90;;;;;;5023352;28;19921;-68
2022/09/06 09:33:21;;;;;;;;;;;22.30;99.90;;;;;;5022553;28;20161;-68
2022/09/06 09:35:48;;;;;;;;;;;22.40;99.90;;;;;;5019334;28;20181;-67
2022/09/06 09:38:19;;;;;;;;;;;22.50;99.90;;;;;;5023230;28;19921;-67
2022/09/06 09:40:49;;;;;;;;;;;22.60;99.90;;;;;;5021900;28;19922;-68
2022/09/06 09:43:19;;;;;;;;;;;22.80;99.90;;;;;;5012544;28;19969;-68
2022/09/06 09:45:46;;;;;;;;;;;22.90;99.90;;;;;;5024932;28;19928;-68
2022/09/06 09:48:19;;;;;;;;;;;23.10;99.90;;;;;;5007996;28;19928;-68
2022/09/06 09:50:46;;;;;;;;;;;23.10;99.90;;;;;;5015433;28;19922;-68
2022/09/06 09:53:13;;;;;;;;;;;23.20;99.90;;;;;;5026586;28;19959;-68
2022/09/06 09:55:41;;;;;;;;;;;23.30;99.90;;;;;;5027360;28;19921;-68
2022/09/06 09:58:17;;;;;;;;;;;23.40;99.90;;;;;;5024868;28;19921;-68
2022/09/06 10:00:45;;;;;;;;;;;23.50;99.90;;;;;;5007858;28;19922;-68
2022/09/06 10:03:13;;;;;;;;;;;23.60;99.90;;;;;;5022359;28;19921;-67
2022/09/06 10:05:39;;;;;;;;;;;23.80;99.90;;;;;;5027155;28;19985;-68
2022/09/06 10:08:09;;;;;;;;;;;23.90;99.90;;;;;;5027102;28;20108;-68
2022/09/06 10:10:39;;;;;;;;;;;24.00;99.90;;;;;;5027272;28;20090;-68
2022/09/06 10:13:07;;;;;;;;;;;24.20;99.90;;;;;;5023670;28;20124;-68
2022/09/06 10:15:35;;;;;;;;;;;24.30;99.90;;;;;;5025335;28;19921;-67
2022/09/06 10:18:03;;;;;;;;;;;24.50;99.90;;;;;;5025437;28;20220;-68
2022/09/06 10:20:33;;;;;;;;;;;24.60;99.90;;;;;;5027155;28;20261;-68
2022/09/06 10:23:01;;;;;;;;;;;24.80;99.90;;;;;;5026446;28;20227;-67
2022/09/06 10:25:38;;;;;;;;;;;24.80;99.90;;;;;;5026681;28;19992;-67
2022/09/06 10:28:32;;;;;;;;;;;24.90;99.90;;;;;;5026366;28;19928;-67
2022/09/06 10:31:12;;;;;;;;;;;25.10;99.90;;;;;;5026566;28;19975;-67
2022/09/06 10:33:48;;;;;;;;;;;25.30;99.90;;;;;;5025938;28;19921;-67
2022/09/06 10:36:19;;;;;;;;;;;25.30;99.90;;;;;;5025270;28;19989;-67
2022/09/06 10:38:50;;;;;;;;;;;25.50;99.90;;;;;;5026546;28;19921;-67
2022/09/06 10:41:24;;;;;;;;;;;25.60;99.90;;;;;;5026480;28;19921;-67
2022/09/06 10:43:56;;;;;;;;;;;25.70;99.90;;;;;;5025894;28;19929;-67
2022/09/06 10:46:25;;;;;;;;;;;25.80;99.90;;;;;;5026230;28;20223;-67
2022/09/06 10:48:53;;;;;;;;;;;25.90;99.90;;;;;;5025944;28;19925;-67
2022/09/06 10:51:26;;;;;;;;;;;26.00;99.90;;;;;;5026212;28;20148;-67
2022/09/06 10:53:54;;;;;;;;;;;26.10;99.90;;;;;;5024923;28;20149;-67
2022/09/06 10:56:24;;;;;;;;;;;26.20;99.90;;;;;;5022913;28;19929;-67
2022/09/06 10:58:53;;;;;;;;;;;26.20;99.90;;;;;;5024134;28;19921;-67
2022/09/06 11:01:27;;;;;;;;;;;26.20;99.90;;;;;;5017538;28;19993;-67
2022/09/06 11:03:58;;;;;;;;;;;26.20;99.90;;;;;;5024876;28;20120;-67
2022/09/06 11:06:25;;;;;;;;;;;26.30;99.90;;;;;;5025290;28;19921;-68
2022/09/06 11:11:22;;;;;;;;;;;26.50;99.90;;;;;;5038609;28;19921;-69
2022/09/06 11:13:48;;;;;;;;;;;26.70;99.90;;;;;;5045784;28;19975;-69
2022/09/06 11:16:19;;;;;;;;;;;26.80;99.90;;;;;;5045516;28;19921;-69
2022/09/06 11:18:48;;;;;;;;;;;27.00;99.90;;;;;;5037222;28;19993;-70
2022/09/06 11:21:24;;;;;;;;;;;27.00;99.90;;;;;;5020049;28;19925;-69
2022/09/06 11:23:52;;;;;;;;;;;27.10;99.90;;;;;;5024612;28;20260;-69
2022/09/06 11:26:27;;;;;;;;;;;27.20;99.90;;;;;;5023923;28;20120;-69
2022/09/06 11:28:55;;;;;;;;;;;27.20;99.90;;;;;;5008453;28;19992;-70
2022/09/06 11:31:24;;;;;;;;;;;27.30;99.90;;;;;;5025366;28;20204;-69
2022/09/06 11:34:01;;;;;;;;;;;27.30;99.90;;;;;;5023238;28;19936;-68
2022/09/06 11:36:33;;;;;;;;;;;27.40;99.90;;;;;;5025323;28;20001;-72
2022/09/06 11:39:00;;;;;;;;;;;27.30;99.90;;;;;;5018372;28;19957;-70
2022/09/06 11:41:28;;;;;;;;;;;27.30;99.90;;;;;;5008198;28;20004;-70
2022/09/06 11:43:55;;;;;;;;;;;27.20;99.90;;;;;;5024834;28;19921;-70
2022/09/06 11:46:40;;;;;;;;;;;27.20;99.90;;;;;;5024615;28;19953;-70
2022/09/06 11:49:08;;;;;;;;;;;27.20;99.90;;;;;;5025032;28;19957;-70
2022/09/06 11:51:37;;;;;;;;;;;27.20;99.90;;;;;;5022178;28;20121;-70
2022/09/06 11:54:17;;;;;;;;;;;27.10;99.90;;;;;;5024722;28;19929;-70
2022/09/06 11:56:49;;;;;;;;;;;27.10;99.90;;;;;;5004894;28;19985;-70
2022/09/06 11:59:24;;;;;;;;;;;27.20;99.90;;;;;;5005233;28;19928;-69
2022/09/06 12:02:01;;;;;;;;;;;27.20;99.90;;;;;;5005487;28;19993;-70
2022/09/06 12:04:42;;;;;;;;;;;27.20;99.90;;;;;;5001933;28;19922;-69
2022/09/06 12:07:11;;;;;;;;;;;27.40;99.90;;;;;;5004640;28;19928;-70
2022/09/06 12:09:39;;;;;;;;;;;27.70;99.90;;;;;;5004829;28;19928;-70
2022/09/06 12:12:06;;;;;;;;;;;27.90;99.90;;;;;;5005090;28;19954;-69
2022/09/06 12:14:35;;;;;;;;;;;28.10;99.90;;;;;;5003769;28;19985;-70
2022/09/06 12:17:26;;;;;;;;;;;28.20;99.90;;;;;;5005229;28;19922;-69
2022/09/06 12:19:54;;;;;;;;;;;28.40;99.90;;;;;;5004991;28;19986;-69
2022/09/06 12:22:40;;;;;;;;;;;28.50;99.90;;;;;;5020718;28;19944;-69
2022/09/06 12:25:28;;;;;;;;;;;28.50;99.90;;;;;;5004611;28;19945;-69
2022/09/06 12:27:56;;;;;;;;;;;28.40;99.90;;;;;;5004667;28;19929;-69
2022/09/06 12:30:34;;;;;;;;;;;28.30;99.90;;;;;;5004960;28;20194;-68
2022/09/06 12:33:02;;;;;;;;;;;28.20;99.90;;;;;;5004188;28;19922;-70
2022/09/06 12:35:30;;;;;;;;;;;28.00;99.90;;;;;;5013874;28;19921;-71
2022/09/06 12:37:58;;;;;;;;;;;28.20;99.90;;;;;;5024394;28;19922;-70
2022/09/06 12:40:28;;;;;;;;;;;28.40;99.90;;;;;;5013046;28;19921;-71
2022/09/06 12:42:55;;;;;;;;;;;28.80;99.90;;;;;;5023820;28;19921;-71
2022/09/06 12:45:22;;;;;;;;;;;29.20;99.90;;;;;;5024101;28;20415;-71
2022/09/06 12:47:49;;;;;;;;;;;29.20;99.90;;;;;;5004920;28;20008;-71
2022/09/06 12:50:17;;;;;;;;;;;29.20;99.90;;;;;;5004608;28;19989;-72
2022/09/06 12:52:45;;;;;;;;;;;29.20;99.90;;;;;;5004113;28;19921;-71
2022/09/06 12:55:14;;;;;;;;;;;29.10;99.90;;;;;;5004581;28;19921;-71
2022/09/06 12:57:48;;;;;;;;;;;29.00;99.90;;;;;;5004635;28;20129;-71
2022/09/06 13:00:15;;;;;;;;;;;28.80;99.90;;;;;;5015788;28;19925;-71
2022/09/06 13:02:46;;;;;;;;;;;28.70;99.90;;;;;;5023795;28;19928;-71
2022/09/06 13:05:13;;;;;;;;;;;28.90;99.90;;;;;;5021319;28;20222;-71
2022/09/06 13:07:41;;;;;;;;;;;29.20;99.90;;;;;;5024031;28;20196;-71
2022/09/06 13:10:08;;;;;;;;;;;29.50;99.90;;;;;;5023818;28;19922;-70
2022/09/06 13:12:37;;;;;;;;;;;29.60;99.90;;;;;;5023799;28;19996;-71
2022/09/06 13:15:08;;;;;;;;;;;29.70;99.90;;;;;;5023828;28;19961;-71
2022/09/06 13:17:36;;;;;;;;;;;29.60;99.90;;;;;;5023187;28;19921;-70
2022/09/06 13:20:10;;;;;;;;;;;29.40;99.90;;;;;;5023961;28;19985;-71
2022/09/06 13:22:39;;;;;;;;;;;29.20;99.90;;;;;;5023687;28;19964;-73
2022/09/06 13:25:13;;;;;;;;;;;29.10;99.90;;;;;;5023570;28;19961;-71
2022/09/06 13:27:44;;;;;;;;;;;29.20;99.90;;;;;;5023709;28;19921;-71
2022/09/06 13:30:29;;;;;;;;;;;29.50;99.90;;;;;;5024057;28;19921;-71
2022/09/06 13:32:56;;;;;;;;;;;29.80;99.90;;;;;;5023411;28;19921;-71
2022/09/06 13:35:23;;;;;;;;;;;29.70;99.90;;;;;;5021329;28;20004;-71
2022/09/06 13:37:50;;;;;;;;;;;29.70;99.90;;;;;;5023809;28;19925;-72
2022/09/06 13:40:35;;;;;;;;;;;29.80;99.90;;;;;;5005506;28;19929;-72
2022/09/06 13:43:02;;;;;;;;;;;30.00;99.90;;;;;;5003023;28;19922;-72
2022/09/06 13:45:32;;;;;;;;;;;30.10;99.90;;;;;;5004620;28;19921;-72
2022/09/06 13:47:59;;;;;;;;;;;30.00;99.90;;;;;;5023780;28;19929;-72
2022/09/06 13:50:25;;;;;;;;;;;30.10;99.90;;;;;;5023736;28;20162;-72
2022/09/06 13:52:53;;;;;;;;;;;30.30;99.90;;;;;;5022879;28;19930;-72
2022/09/06 13:55:21;;;;;;;;;;;30.40;99.90;;;;;;5023575;28;19964;-72
2022/09/06 13:57:48;;;;;;;;;;;30.60;99.90;;;;;;5023750;28;19922;-72
2022/09/06 14:00:15;;;;;;;;;;;30.50;99.90;;;;;;5023789;28;19921;-72
2022/09/06 14:02:45;;;;;;;;;;;30.40;99.90;;;;;;5023279;28;19930;-72
2022/09/06 14:05:11;;;;;;;;;;;30.20;99.90;;;;;;5020580;28;20094;-72
2022/09/06 14:07:38;;;;;;;;;;;30.30;99.90;;;;;;5023786;28;19928;-72
2022/09/06 14:10:05;;;;;;;;;;;30.50;99.90;;;;;;5023402;28;19976;-72
2022/09/06 14:12:33;;;;;;;;;;;30.70;98.80;;;;;;5023258;28;19927;-71
2022/09/06 14:14:59;;;;;;;;;;;30.80;98.60;;;;;;5022820;28;19977;-72
2022/09/06 14:17:26;;;;;;;;;;;30.90;96.80;;;;;;5023357;28;19921;-73
2022/09/06 14:19:54;;;;;;;;;;;30.90;96.90;;;;;;5023563;28;19943;-71
2022/09/06 14:22:21;;;;;;;;;;;31.10;96.60;;;;;;5023707;28;19921;-71
2022/09/06 14:24:48;;;;;;;;;;;31.20;96.80;;;;;;5022587;28;19971;-70
2022/09/06 14:27:15;;;;;;;;;;;31.40;95.40;;;;;;5023158;28;19922;-71